Time;durP1;ratioP1;P1;durP2;ratioP2;P2;SDS_P1;SDS_P2;PMS_P1;PMS_P2;Temp;Humidity;BMP_temperature;BMP_pressure;BME280_temperature;BME280_humidity;BME280_pressure;Samples;Min_cycle;Max_cycle;Signal;HPM_P1;HPM_P2
2022/11/21 00:00:39;;;;;;;6.60;1.67;;;;;;;;;;5086226;28;20059;-71
2022/11/21 00:03:10;;;;;;;11.23;2.15;;;;;;;;;;5085929;28;20052;-72
2022/11/21 00:05:41;;;;;;;13.25;2.40;;;;;;;;;;5086237;28;20119;-72
2022/11/21 00:08:14;;;;;;;10.80;3.03;;;;;;;;;;5086389;28;20044;-73
2022/11/21 00:10:44;;;;;;;7.72;1.90;;;;;;;;;;5086877;28;20051;-73
2022/11/21 00:13:19;;;;;;;14.32;2.60;;;;;;;;;;5068213;28;20048;-72
2022/11/21 00:15:49;;;;;;;13.00;2.35;;;;;;;;;;5086062;28;20075;-72
2022/11/21 00:18:19;;;;;;;9.02;2.35;;;;;;;;;;5068662;28;20047;-72
2022/11/21 00:20:49;;;;;;;12.52;2.50;;;;;;;;;;5086461;28;20052;-72
2022/11/21 00:23:18;;;;;;;11.07;2.53;;;;;;;;;;5086028;28;20047;-72
2022/11/21 00:25:48;;;;;;;6.85;2.28;;;;;;;;;;5086673;28;20059;-72
2022/11/21 00:28:18;;;;;;;9.40;3.10;;;;;;;;;;5086524;28;20523;-72
2022/11/21 00:30:48;;;;;;;11.95;3.20;;;;;;;;;;5086428;28;20051;-70
2022/11/21 00:33:17;;;;;;;11.90;2.83;;;;;;;;;;5086398;28;20498;-70
2022/11/21 00:35:47;;;;;;;12.95;2.55;;;;;;;;;;5086452;28;20052;-74
2022/11/21 00:38:17;;;;;;;13.65;2.75;;;;;;;;;;5086473;28;20048;-73
2022/11/21 00:40:47;;;;;;;8.80;2.17;;;;;;;;;;5068679;28;20414;-72
2022/11/21 00:43:16;;;;;;;8.80;2.33;;;;;;;;;;5085851;28;20506;-72
2022/11/21 00:45:46;;;;;;;10.38;2.53;;;;;;;;;;5085863;28;20434;-72
2022/11/21 00:48:16;;;;;;;6.88;2.25;;;;;;;;;;5085803;28;20047;-72
2022/11/21 00:50:48;;;;;;;12.73;2.42;;;;;;;;;;5085804;28;20620;-70
2022/11/21 00:53:19;;;;;;;12.73;2.40;;;;;;;;;;5086014;28;20548;-73
2022/11/21 00:55:49;;;;;;;11.27;2.40;;;;;;;;;;5086122;28;20055;-72
2022/11/21 00:58:18;;;;;;;13.88;2.58;;;;;;;;;;5086481;28;20036;-72
2022/11/21 01:00:48;;;;;;;8.43;2.50;;;;;;;;;;5086028;28;20051;-73
2022/11/21 01:03:18;;;;;;;9.77;2.63;;;;;;;;;;5068283;28;20525;-73
2022/11/21 01:05:48;;;;;;;8.98;2.30;;;;;;;;;;5086781;28;20052;-71
2022/11/21 01:08:17;;;;;;;9.25;3.05;;;;;;;;;;5086097;28;20044;-72
2022/11/21 01:10:47;;;;;;;7.85;2.30;;;;;;;;;;5068487;28;20056;-73
2022/11/21 01:13:17;;;;;;;9.43;2.13;;;;;;;;;;5085909;28;20059;-72
2022/11/21 01:15:47;;;;;;;4.78;1.75;;;;;;;;;;5088437;28;20054;-73
2022/11/21 01:18:16;;;;;;;7.45;2.40;;;;;;;;;;5089854;28;20045;-73
2022/11/21 01:20:46;;;;;;;10.63;2.08;;;;;;;;;;5089494;28;20055;-71
2022/11/21 01:23:16;;;;;;;5.75;1.95;;;;;;;;;;5089679;28;20067;-72
2022/11/21 01:25:45;;;;;;;6.97;2.13;;;;;;;;;;5089819;28;20040;-72
2022/11/21 01:28:15;;;;;;;9.40;2.83;;;;;;;;;;5090250;28;20052;-73
2022/11/21 01:30:45;;;;;;;9.75;2.42;;;;;;;;;;5071724;28;20044;-74
2022/11/21 01:33:15;;;;;;;9.85;3.13;;;;;;;;;;5089077;28;20062;-73
2022/11/21 01:35:45;;;;;;;10.10;2.58;;;;;;;;;;5089069;28;20052;-72
2022/11/21 01:38:16;;;;;;;11.45;3.30;;;;;;;;;;5089261;28;20063;-74
2022/11/21 01:40:46;;;;;;;10.95;3.03;;;;;;;;;;5089178;28;20456;-73
2022/11/21 01:43:16;;;;;;;14.52;2.70;;;;;;;;;;5071386;28;20395;-71
2022/11/21 01:45:55;;;;;;;5.05;1.85;;;;;;;;;;5089233;28;20055;-73
2022/11/21 01:48:37;;;;;;;9.20;2.67;;;;;;;;;;5088772;28;20075;-70
2022/11/21 01:51:31;;;;;;;9.88;2.45;;;;;;;;;;5072202;28;20051;-71
2022/11/21 01:54:03;;;;;;;13.13;2.88;;;;;;;;;;5089681;28;20047;-71
2022/11/21 01:57:00;;;;;;;12.02;2.58;;;;;;;;;;5089050;28;20047;-72
2022/11/21 01:59:53;;;;;;;9.68;2.20;;;;;;;;;;5088649;28;20044;-71
2022/11/21 02:02:27;;;;;;;9.85;2.50;;;;;;;;;;5079865;28;20429;-73
2022/11/21 02:05:00;;;;;;;5.60;2.17;;;;;;;;;;5088730;28;20044;-71
2022/11/21 02:07:34;;;;;;;11.43;2.58;;;;;;;;;;5089083;28;20044;-70
2022/11/21 02:10:06;;;;;;;9.98;2.42;;;;;;;;;;5088624;28;20410;-72
2022/11/21 02:12:57;;;;;;;8.52;2.63;;;;;;;;;;5088853;28;20044;-71
2022/11/21 02:15:29;;;;;;;7.75;2.53;;;;;;;;;;5088847;28;20399;-70
2022/11/21 02:17:59;;;;;;;9.70;2.72;;;;;;;;;;5088874;28;20418;-72
2022/11/21 02:20:30;;;;;;;5.78;2.33;;;;;;;;;;5088478;28;20052;-70
2022/11/21 02:23:26;;;;;;;9.52;3.42;;;;;;;;;;5088513;28;20044;-72
2022/11/21 02:25:56;;;;;;;9.70;2.47;;;;;;;;;;5087914;28;20044;-72
2022/11/21 02:28:26;;;;;;;9.25;2.60;;;;;;;;;;5087937;28;20056;-71
2022/11/21 02:30:56;;;;;;;11.50;3.08;;;;;;;;;;5088582;28;20052;-71
2022/11/21 02:33:26;;;;;;;7.47;2.28;;;;;;;;;;5088484;28;20067;-72
2022/11/21 02:36:00;;;;;;;6.95;2.47;;;;;;;;;;5088517;28;20454;-71
2022/11/21 02:38:36;;;;;;;5.97;2.13;;;;;;;;;;5089076;28;20056;-72
2022/11/21 02:41:25;;;;;;;8.90;2.42;;;;;;;;;;5088126;28;20040;-70
2022/11/21 02:44:28;;;;;;;14.57;2.88;;;;;;;;;;5088446;28;20433;-72
2022/11/21 02:46:58;;;;;;;9.27;2.70;;;;;;;;;;5088275;28;20052;-72
2022/11/21 02:49:38;;;;;;;8.48;2.90;;;;;;;;;;5087681;28;20048;-71
2022/11/21 02:52:08;;;;;;;11.25;2.63;;;;;;;;;;5087905;28;20044;-72
2022/11/21 02:54:38;;;;;;;6.00;2.03;;;;;;;;;;5070039;28;20052;-71
2022/11/21 02:57:08;;;;;;;9.32;2.55;;;;;;;;;;5089117;28;20050;-71
2022/11/21 02:59:38;;;;;;;5.78;2.30;;;;;;;;;;5088205;28;20052;-72
2022/11/21 03:02:07;;;;;;;9.55;2.17;;;;;;;;;;5087731;28;20059;-73
2022/11/21 03:04:37;;;;;;;8.63;2.63;;;;;;;;;;5087996;28;20040;-70
2022/11/21 03:07:07;;;;;;;8.77;2.50;;;;;;;;;;5088355;28;20051;-71
2022/11/21 03:09:36;;;;;;;9.32;2.33;;;;;;;;;;5070003;28;20501;-71
2022/11/21 03:12:09;;;;;;;8.48;2.78;;;;;;;;;;5088016;28;20044;-71
2022/11/21 03:14:39;;;;;;;5.43;2.63;;;;;;;;;;5088020;28;20525;-72
2022/11/21 03:17:09;;;;;;;12.05;3.40;;;;;;;;;;5087651;28;20052;-72
2022/11/21 03:19:39;;;;;;;5.47;2.30;;;;;;;;;;5087572;28;20118;-71
2022/11/21 03:22:08;;;;;;;9.52;3.00;;;;;;;;;;5087716;28;20048;-70
2022/11/21 03:24:39;;;;;;;9.05;2.65;;;;;;;;;;5087359;28;20047;-72
2022/11/21 03:27:09;;;;;;;9.80;2.70;;;;;;;;;;5087445;28;20491;-71
2022/11/21 03:29:39;;;;;;;9.25;2.90;;;;;;;;;;5087254;28;20051;-71
2022/11/21 03:32:09;;;;;;;9.57;2.95;;;;;;;;;;5087607;28;20126;-72
2022/11/21 03:34:38;;;;;;;8.30;2.83;;;;;;;;;;5087297;28;20498;-72
2022/11/21 03:37:09;;;;;;;9.85;2.60;;;;;;;;;;5086374;28;20082;-72
2022/11/21 03:39:38;;;;;;;7.63;2.78;;;;;;;;;;5087387;28;20782;-72
2022/11/21 03:42:08;;;;;;;11.70;3.00;;;;;;;;;;5087370;28;20044;-73
2022/11/21 03:44:38;;;;;;;8.90;3.10;;;;;;;;;;5086992;28;20052;-72
2022/11/21 03:47:08;;;;;;;7.32;2.60;;;;;;;;;;5086819;28;20047;-71
2022/11/21 03:49:37;;;;;;;12.82;3.25;;;;;;;;;;5086782;28;20418;-69
2022/11/21 03:52:07;;;;;;;10.35;2.42;;;;;;;;;;5087229;28;20044;-70
2022/11/21 03:54:37;;;;;;;8.35;2.55;;;;;;;;;;5087361;28;20043;-70
2022/11/21 03:57:07;;;;;;;7.53;2.70;;;;;;;;;;5086858;28;20509;-70
2022/11/21 03:59:36;;;;;;;13.75;3.65;;;;;;;;;;5087397;28;20057;-72
2022/11/21 04:02:06;;;;;;;10.38;3.42;;;;;;;;;;5086991;28;20050;-71
2022/11/21 04:04:36;;;;;;;9.75;3.42;;;;;;;;;;5086853;28;20471;-71
2022/11/21 04:07:06;;;;;;;9.85;2.63;;;;;;;;;;5086417;28;20048;-72
2022/11/21 04:09:36;;;;;;;7.07;2.47;;;;;;;;;;5086469;28;20048;-70
2022/11/21 04:12:06;;;;;;;10.68;3.33;;;;;;;;;;5086325;28;20044;-72
2022/11/21 04:14:36;;;;;;;10.88;3.22;;;;;;;;;;5086434;28;20051;-72
2022/11/21 04:17:06;;;;;;;12.75;3.10;;;;;;;;;;5068565;28;20043;-70
2022/11/21 04:19:36;;;;;;;5.65;2.97;;;;;;;;;;5087040;28;20040;-72
2022/11/21 04:22:06;;;;;;;8.18;2.95;;;;;;;;;;5086624;28;20052;-72
2022/11/21 04:24:36;;;;;;;12.90;3.25;;;;;;;;;;5086397;28;20048;-71
2022/11/21 04:27:06;;;;;;;6.88;2.70;;;;;;;;;;5086515;28;20047;-72
2022/11/21 04:29:36;;;;;;;5.25;3.03;;;;;;;;;;5086095;28;20422;-70
2022/11/21 04:32:05;;;;;;;5.32;2.55;;;;;;;;;;5086047;28;20063;-70
2022/11/21 04:34:36;;;;;;;6.57;2.72;;;;;;;;;;5086843;28;20613;-71
2022/11/21 04:37:06;;;;;;;7.63;2.83;;;;;;;;;;5086531;28;20040;-72
2022/11/21 04:39:39;;;;;;;7.68;3.67;;;;;;;;;;5086278;28;20040;-71
2022/11/21 04:42:09;;;;;;;14.90;3.53;;;;;;;;;;5067665;28;20059;-72
2022/11/21 04:44:39;;;;;;;6.13;3.20;;;;;;;;;;5086635;28;20048;-71
2022/11/21 04:47:09;;;;;;;7.68;3.15;;;;;;;;;;5086043;28;20052;-71
2022/11/21 04:49:38;;;;;;;8.32;2.85;;;;;;;;;;5088750;28;20047;-71
2022/11/21 04:52:08;;;;;;;9.05;3.08;;;;;;;;;;5090099;28;20048;-70
2022/11/21 04:54:38;;;;;;;10.20;3.03;;;;;;;;;;5090100;28;20056;-71
2022/11/21 04:57:08;;;;;;;9.48;2.88;;;;;;;;;;5090209;28;20040;-71
2022/11/21 04:59:38;;;;;;;8.35;2.95;;;;;;;;;;5071706;28;20056;-72
2022/11/21 05:02:08;;;;;;;5.88;3.08;;;;;;;;;;5090313;28;20036;-71
2022/11/21 05:04:38;;;;;;;8.25;3.30;;;;;;;;;;5089861;28;20040;-71
2022/11/21 05:07:07;;;;;;;8.60;3.28;;;;;;;;;;5090225;28;20052;-69
2022/11/21 05:09:37;;;;;;;6.50;3.88;;;;;;;;;;5090488;28;20044;-71
2022/11/21 05:14:58;;;;;;;9.57;3.42;;;;;;;;;;5089730;28;20047;-70
2022/11/21 05:17:28;;;;;;;7.93;3.42;;;;;;;;;;5089671;28;20055;-71
2022/11/21 05:19:59;;;;;;;6.50;3.40;;;;;;;;;;5090337;28;20051;-72
2022/11/21 05:22:29;;;;;;;8.10;3.85;;;;;;;;;;5089662;28;20058;-72
2022/11/21 05:24:59;;;;;;;7.10;3.83;;;;;;;;;;5089839;28;20051;-73
2022/11/21 05:27:29;;;;;;;12.18;4.40;;;;;;;;;;5089641;28;20396;-71
2022/11/21 05:29:59;;;;;;;10.00;3.38;;;;;;;;;;5089419;28;20616;-73
2022/11/21 05:32:29;;;;;;;7.82;3.72;;;;;;;;;;5089957;28;20116;-72
2022/11/21 05:34:59;;;;;;;11.10;3.60;;;;;;;;;;5090264;28;20044;-71
2022/11/21 05:37:29;;;;;;;9.00;3.25;;;;;;;;;;5071599;28;20058;-73
2022/11/21 05:40:00;;;;;;;11.27;3.80;;;;;;;;;;5089360;28;20052;-74
2022/11/21 05:45:19;;;;;;;7.25;3.58;;;;;;;;;;5089224;28;20055;-72
2022/11/21 05:47:49;;;;;;;6.18;2.90;;;;;;;;;;5089484;28;20059;-72
2022/11/21 05:50:19;;;;;;;9.88;3.20;;;;;;;;;;5088249;28;20834;-71
2022/11/21 05:52:49;;;;;;;11.18;3.53;;;;;;;;;;5089351;28;20053;-71
2022/11/21 05:55:19;;;;;;;7.90;3.08;;;;;;;;;;5089275;28;20047;-71
2022/11/21 05:57:48;;;;;;;13.23;3.90;;;;;;;;;;5089610;28;20055;-70
2022/11/21 06:00:18;;;;;;;10.30;3.80;;;;;;;;;;5070170;28;20415;-73
2022/11/21 06:05:36;;;;;;;9.10;3.50;;;;;;;;;;5088828;28;20047;-72
2022/11/21 06:08:06;;;;;;;8.25;3.35;;;;;;;;;;5088851;28;20052;-71
2022/11/21 06:10:36;;;;;;;12.38;3.33;;;;;;;;;;5088920;28;20051;-73
2022/11/21 06:13:20;;;;;;;15.90;3.40;;;;;;;;;;5088856;28;20052;-71
2022/11/21 06:15:58;;;;;;;10.60;3.80;;;;;;;;;;5088711;28;20044;-73
2022/11/21 06:18:31;;;;;;;9.30;3.40;;;;;;;;;;5088972;28;20048;-71
2022/11/21 06:21:10;;;;;;;13.77;3.33;;;;;;;;;;5088979;28;20494;-72
2022/11/21 06:23:41;;;;;;;5.88;2.92;;;;;;;;;;5088946;28;20044;-71
2022/11/21 06:26:20;;;;;;;12.30;3.35;;;;;;;;;;5088530;28;20051;-70
2022/11/21 06:28:51;;;;;;;9.80;3.78;;;;;;;;;;5088611;28;20052;-72
2022/11/21 06:31:25;;;;;;;7.95;3.45;;;;;;;;;;5087859;28;20048;-71
2022/11/21 06:33:57;;;;;;;9.10;3.70;;;;;;;;;;5088746;28;20796;-70
2022/11/21 06:36:27;;;;;;;14.50;4.43;;;;;;;;;;5088155;28;20048;-72
2022/11/21 06:38:57;;;;;;;11.43;4.10;;;;;;;;;;5088177;28;20040;-71
2022/11/21 06:41:29;;;;;;;13.38;4.10;;;;;;;;;;5088209;28;20051;-69
2022/11/21 06:44:03;;;;;;;11.57;3.75;;;;;;;;;;5088298;28;20537;-71
2022/11/21 06:46:32;;;;;;;10.40;2.97;;;;;;;;;;5088244;28;20436;-71
2022/11/21 06:49:02;;;;;;;8.55;3.17;;;;;;;;;;5088293;28;20044;-72
2022/11/21 06:51:32;;;;;;;6.35;3.15;;;;;;;;;;5087682;28;20051;-70
2022/11/21 06:54:02;;;;;;;6.60;3.45;;;;;;;;;;5069671;28;20503;-71
2022/11/21 06:56:31;;;;;;;8.65;3.60;;;;;;;;;;5088149;28;20044;-72
2022/11/21 06:59:01;;;;;;;8.13;3.42;;;;;;;;;;5087825;28;20418;-71
2022/11/21 07:01:32;;;;;;;5.32;3.20;;;;;;;;;;5088174;28;20495;-71
2022/11/21 07:04:02;;;;;;;8.73;3.13;;;;;;;;;;5088397;28;20399;-72
2022/11/21 07:06:34;;;;;;;8.80;3.13;;;;;;;;;;5087818;28;20048;-70
2022/11/21 07:09:05;;;;;;;7.50;3.00;;;;;;;;;;5070306;28;20048;-71
2022/11/21 07:13:20;;;;;;;7.82;4.03;;;;;;;;;;5086976;28;20063;-73
2022/11/21 07:14:45;;;;;;;8.30;3.85;;;;;;;;;;5088012;28;20406;-72
2022/11/21 07:17:15;;;;;;;5.55;3.42;;;;;;;;;;5087696;28;20056;-71
2022/11/21 07:19:45;;;;;;;6.63;3.65;;;;;;;;;;5088355;28;20051;-73
2022/11/21 07:22:15;;;;;;;11.70;3.38;;;;;;;;;;5068911;28;20124;-72
2022/11/21 07:24:45;;;;;;;9.15;3.47;;;;;;;;;;5088247;28;20056;-70
2022/11/21 07:27:15;;;;;;;8.57;3.63;;;;;;;;;;5087329;28;20142;-71
2022/11/21 07:29:44;;;;;;;9.85;3.30;;;;;;;;;;5069274;28;20491;-70
2022/11/21 07:32:15;;;;;;;8.82;3.38;;;;;;;;;;5086681;28;20055;-72
2022/11/21 07:34:46;;;;;;;11.20;4.07;;;;;;;;;;5069152;28;20398;-73
2022/11/21 07:37:15;;;;;;;11.23;4.60;;;;;;;;;;5087118;28;20052;-73
2022/11/21 07:39:45;;;;;;;10.40;4.32;;;;;;;;;;5087121;28;20062;-72
2022/11/21 07:42:15;;;;;;;7.07;4.32;;;;;;;;;;5086890;28;20431;-72
2022/11/21 07:44:45;;;;;;;8.23;4.00;;;;;;;;;;5069220;28;20056;-72
2022/11/21 07:47:15;;;;;;;9.40;4.40;;;;;;;;;;5086539;28;20047;-71
2022/11/21 07:49:45;;;;;;;12.38;4.97;;;;;;;;;;5086831;28;20454;-70
2022/11/21 07:52:14;;;;;;;8.48;4.28;;;;;;;;;;5086546;28;20039;-71
2022/11/21 07:54:44;;;;;;;11.18;4.63;;;;;;;;;;5086828;28;20502;-71
2022/11/21 07:57:14;;;;;;;7.28;3.60;;;;;;;;;;5087444;28;20387;-72
2022/11/21 07:59:44;;;;;;;8.25;3.22;;;;;;;;;;5086796;28;20067;-72
2022/11/21 08:02:22;;;;;;;10.25;3.78;;;;;;;;;;5087148;28;20044;-72
2022/11/21 08:04:52;;;;;;;7.82;3.70;;;;;;;;;;5086300;28;20044;-70
2022/11/21 08:07:23;;;;;;;6.82;3.78;;;;;;;;;;5086651;28;20052;-72
2022/11/21 08:09:53;;;;;;;8.90;4.05;;;;;;;;;;5086103;28;20065;-71
2022/11/21 08:12:23;;;;;;;7.38;3.72;;;;;;;;;;5086634;28;20056;-73
2022/11/21 08:14:53;;;;;;;5.82;4.25;;;;;;;;;;5086733;28;20490;-71
2022/11/21 08:17:25;;;;;;;10.45;3.85;;;;;;;;;;5086565;28;20774;-71
2022/11/21 08:19:57;;;;;;;8.82;3.80;;;;;;;;;;5086713;28;20048;-72
2022/11/21 08:22:27;;;;;;;10.38;5.03;;;;;;;;;;5086935;28;20051;-72
2022/11/21 08:24:57;;;;;;;9.32;3.83;;;;;;;;;;5068117;28;20051;-76
2022/11/21 08:27:27;;;;;;;7.85;3.85;;;;;;;;;;5086365;28;20059;-71
2022/11/21 08:29:57;;;;;;;8.07;3.85;;;;;;;;;;5086437;28;20052;-72
2022/11/21 08:32:27;;;;;;;6.93;3.45;;;;;;;;;;5085972;28;20052;-71
2022/11/21 08:35:01;;;;;;;7.47;3.97;;;;;;;;;;5065209;28;20449;-72
2022/11/21 08:37:31;;;;;;;9.05;3.72;;;;;;;;;;5048011;28;20064;-72
2022/11/21 08:40:01;;;;;;;8.38;3.97;;;;;;;;;;5048762;28;20059;-70
2022/11/21 08:42:31;;;;;;;7.85;4.40;;;;;;;;;;5066420;28;20050;-71
2022/11/21 08:45:01;;;;;;;9.88;4.03;;;;;;;;;;5047949;28;20059;-73
2022/11/21 08:47:33;;;;;;;8.02;4.63;;;;;;;;;;5066359;28;20053;-73
2022/11/21 08:50:03;;;;;;;7.05;4.00;;;;;;;;;;5048237;28;20511;-72
2022/11/21 08:52:36;;;;;;;7.45;3.92;;;;;;;;;;5065821;28;20052;-72
2022/11/21 08:55:07;;;;;;;11.57;4.10;;;;;;;;;;5065635;28;20056;-72
2022/11/21 08:57:42;;;;;;;11.30;4.60;;;;;;;;;;5065567;28;20391;-72
2022/11/21 09:00:13;;;;;;;15.55;4.40;;;;;;;;;;5065915;28;20499;-72
2022/11/21 09:02:43;;;;;;;8.80;3.90;;;;;;;;;;5065115;28;20036;-72
2022/11/21 09:05:13;;;;;;;6.25;3.45;;;;;;;;;;5065667;28;20055;-72
2022/11/21 09:07:43;;;;;;;6.18;4.50;;;;;;;;;;5065931;28;20053;-71
2022/11/21 09:10:15;;;;;;;10.27;3.33;;;;;;;;;;5064462;28;20052;-74
2022/11/21 09:12:46;;;;;;;6.30;3.60;;;;;;;;;;5065761;28;20049;-72
2022/11/21 09:18:06;;;;;;;12.80;4.20;;;;;;;;;;5046956;28;20064;-72
2022/11/21 09:20:41;;;;;;;10.30;3.55;;;;;;;;;;5065697;28;20056;-72
2022/11/21 09:23:14;;;;;;;11.75;4.28;;;;;;;;;;5065765;28;20056;-72
2022/11/21 09:25:45;;;;;;;14.00;3.70;;;;;;;;;;5065415;28;20517;-72
2022/11/21 09:28:16;;;;;;;11.20;3.72;;;;;;;;;;5065411;28;20040;-71
2022/11/21 09:30:45;;;;;;;13.85;4.75;;;;;;;;;;5048213;28;20052;-72
2022/11/21 09:33:16;;;;;;;14.88;3.92;;;;;;;;;;5065186;28;20056;-72
2022/11/21 09:35:45;;;;;;;11.93;4.22;;;;;;;;;;5067138;28;20052;-72
2022/11/21 09:38:15;;;;;;;8.45;4.35;;;;;;;;;;5051011;28;20045;-72
2022/11/21 09:40:59;;;;;;;12.27;4.82;;;;;;;;;;5069501;28;20044;-72
2022/11/21 09:43:52;;;;;;;7.85;4.30;;;;;;;;;;5069139;28;20052;-72
2022/11/21 09:46:34;;;;;;;14.65;4.35;;;;;;;;;;5068587;28;20055;-71
2022/11/21 09:49:09;;;;;;;9.15;4.07;;;;;;;;;;5069185;28;20051;-75
2022/11/21 09:51:42;;;;;;;11.52;4.50;;;;;;;;;;5068784;28;20055;-72
2022/11/21 09:54:30;;;;;;;7.07;4.47;;;;;;;;;;5068409;28;20044;-73
2022/11/21 09:57:00;;;;;;;11.48;4.63;;;;;;;;;;5069197;28;20052;-72
2022/11/21 09:59:39;;;;;;;9.07;3.63;;;;;;;;;;5068815;28;20059;-72
2022/11/21 10:02:15;;;;;;;9.88;3.15;;;;;;;;;;5068828;28;20045;-74
2022/11/21 10:04:47;;;;;;;10.75;3.63;;;;;;;;;;5068230;28;20414;-72
2022/11/21 10:07:20;;;;;;;7.22;4.00;;;;;;;;;;5067947;28;20067;-72
2022/11/21 10:10:05;;;;;;;11.25;3.38;;;;;;;;;;5068620;28;20040;-72
2022/11/21 10:12:57;;;;;;;11.70;3.97;;;;;;;;;;5068475;28;20044;-72
2022/11/21 10:15:50;;;;;;;9.23;3.30;;;;;;;;;;5068386;28;20054;-72
2022/11/21 10:18:44;;;;;;;16.27;3.65;;;;;;;;;;5068261;28;20056;-73
2022/11/21 10:21:46;;;;;;;11.07;3.75;;;;;;;;;;5068340;28;20043;-72
2022/11/21 10:24:29;;;;;;;10.98;3.45;;;;;;;;;;5016001;28;20052;-72
2022/11/21 10:27:02;;;;;;;13.38;3.45;;;;;;;;;;5068702;28;20060;-72
2022/11/21 10:29:39;;;;;;;7.28;2.88;;;;;;;;;;5068478;28;20049;-73
2022/11/21 10:32:20;;;;;;;12.32;3.40;;;;;;;;;;5068213;28;20060;-72
2022/11/21 10:34:55;;;;;;;9.38;3.25;;;;;;;;;;5068171;28;20048;-75
2022/11/21 10:37:43;;;;;;;12.05;2.67;;;;;;;;;;5068286;28;20052;-75
2022/11/21 10:40:37;;;;;;;8.35;2.72;;;;;;;;;;5067667;28;20519;-76
2022/11/21 10:46:10;;;;;;;7.85;3.72;;;;;;;;;;5067919;28;20044;-73
2022/11/21 10:48:41;;;;;;;8.38;2.50;;;;;;;;;;5051067;28;20052;-74
2022/11/21 10:51:23;;;;;;;5.47;2.45;;;;;;;;;;5068145;28;20407;-72
2022/11/21 10:57:13;;;;;;;11.57;2.40;;;;;;;;;;5067542;28;20067;-72
2022/11/21 11:00:15;;;;;;;19.30;3.17;;;;;;;;;;5068267;28;20041;-72
2022/11/21 11:03:04;;;;;;;16.33;3.13;;;;;;;;;;5026440;28;20056;-75
2022/11/21 11:05:36;;;;;;;14.65;2.55;;;;;;;;;;5068150;28;20043;-74
2022/11/21 11:08:13;;;;;;;11.90;2.72;;;;;;;;;;5067455;28;20403;-72
2022/11/21 11:11:03;;;;;;;9.98;2.33;;;;;;;;;;5067319;28;20040;-72
2022/11/21 11:13:52;;;;;;;17.17;3.00;;;;;;;;;;5067803;28;20052;-72
2022/11/21 11:16:23;;;;;;;6.85;2.03;;;;;;;;;;5067569;28;20048;-72
2022/11/21 11:18:56;;;;;;;7.07;2.25;;;;;;;;;;5067058;28;20048;-72
2022/11/21 11:21:39;;;;;;;11.23;2.10;;;;;;;;;;5066923;28;20053;-73
2022/11/21 11:24:09;;;;;;;5.35;2.10;;;;;;;;;;5067129;28;20044;-73
2022/11/21 11:26:48;;;;;;;9.55;2.40;;;;;;;;;;5066707;28;20044;-72
2022/11/21 11:29:21;;;;;;;15.85;2.45;;;;;;;;;;5067416;28;20041;-73
2022/11/21 11:32:18;;;;;;;10.65;2.13;;;;;;;;;;5048432;28;20060;-73
2022/11/21 11:35:00;;;;;;;12.27;2.22;;;;;;;;;;5066493;28;20045;-73
2022/11/21 11:37:55;;;;;;;9.30;2.90;;;;;;;;;;5065309;28;20831;-72
2022/11/21 11:40:41;;;;;;;4.55;1.75;;;;;;;;;;5064708;28;20048;-72
2022/11/21 12:01:20;;;;;;;6.47;1.75;;;;;;;;;;5067593;28;20427;-73
2022/11/21 12:03:58;;;;;;;6.40;1.70;;;;;;;;;;5048973;28;20532;-73
2022/11/21 12:06:33;;;;;;;7.43;2.20;;;;;;;;;;5066524;28;20056;-73
2022/11/21 12:09:41;;;;;;;11.10;3.42;;;;;;;;;;5066385;28;20503;-73
2022/11/21 12:12:15;;;;;;;8.85;1.95;;;;;;;;;;5066504;28;20056;-73
2022/11/21 12:17:52;;;;;;;8.07;2.03;;;;;;;;;;5048012;28;20065;-73
2022/11/21 12:20:48;;;;;;;9.07;1.98;;;;;;;;;;5066149;28;20048;-73
2022/11/21 12:23:19;;;;;;;7.45;2.22;;;;;;;;;;5037877;28;20839;-73
2022/11/21 12:26:04;;;;;;;4.10;1.77;;;;;;;;;;5066464;28;20049;-73
2022/11/21 12:28:55;;;;;;;7.03;2.28;;;;;;;;;;5065802;28;20052;-73
2022/11/21 12:35:58;;;;;;;9.23;2.53;;;;;;;;;;5070065;28;20056;-73
2022/11/21 12:39:09;;;;;;;12.50;2.40;;;;;;;;;;5063005;28;20048;-73
2022/11/21 12:45:23;;;;;;;12.35;3.50;;;;;;;;;;5065994;28;20048;-73
2022/11/21 12:54:55;;;;;;;9.63;3.65;;;;;;;;;;5066228;28;20056;-72
2022/11/21 12:57:51;;;;;;;9.65;3.10;;;;;;;;;;5065927;28;20052;-73
2022/11/21 13:00:44;;;;;;;6.60;2.95;;;;;;;;;;5066334;28;20056;-75
2022/11/21 13:03:42;;;;;;;6.55;2.63;;;;;;;;;;5066373;28;20526;-73
2022/11/21 13:06:18;;;;;;;9.68;3.63;;;;;;;;;;5065985;28;20063;-73
2022/11/21 13:08:50;;;;;;;9.05;3.20;;;;;;;;;;5066201;28;20053;-72
2022/11/21 13:14:26;;;;;;;9.10;2.80;;;;;;;;;;5069535;28;20052;-73
2022/11/21 13:17:24;;;;;;;6.90;2.70;;;;;;;;;;5069848;28;20045;-73
2022/11/21 13:20:00;;;;;;;10.13;3.35;;;;;;;;;;5068759;28;20060;-73
2022/11/21 13:22:36;;;;;;;5.63;2.80;;;;;;;;;;5069610;28;20055;-73
2022/11/21 13:25:13;;;;;;;5.70;1.85;;;;;;;;;;5069831;28;20055;-72
2022/11/21 13:27:44;;;;;;;4.63;1.83;;;;;;;;;;5070032;28;20044;-73
2022/11/21 13:30:14;;;;;;;7.70;1.83;;;;;;;;;;5069772;28;20115;-73
2022/11/21 13:32:49;;;;;;;7.00;3.25;;;;;;;;;;5069857;28;20395;-73
2022/11/21 13:35:20;;;;;;;9.85;2.17;;;;;;;;;;5068948;28;20414;-73
2022/11/21 13:37:53;;;;;;;9.35;2.28;;;;;;;;;;5069161;28;20052;-73
2022/11/21 13:42:56;;;;;;;4.82;2.13;;;;;;;;;;5069036;28;20036;-72
2022/11/21 13:43:33;;;;;;;9.82;2.92;;;;;;;;;;5069322;28;20044;-74
2022/11/21 13:46:03;;;;;;;5.60;2.10;;;;;;;;;;5069298;28;20048;-72
2022/11/21 13:48:34;;;;;;;6.32;2.53;;;;;;;;;;5069137;28;20049;-73
2022/11/21 13:51:16;;;;;;;9.60;4.53;;;;;;;;;;5069443;28;20063;-71
2022/11/21 13:54:23;;;;;;;10.73;3.47;;;;;;;;;;5069565;28;20044;-72
2022/11/21 13:57:26;;;;;;;6.15;3.10;;;;;;;;;;5069148;28;20052;-72
2022/11/21 14:00:25;;;;;;;19.80;3.50;;;;;;;;;;5068649;28;21192;-73
2022/11/21 14:03:23;;;;;;;10.75;2.60;;;;;;;;;;5041596;28;20534;-74
2022/11/21 14:05:59;;;;;;;8.05;2.15;;;;;;;;;;5069012;28;20044;-73
2022/11/21 14:08:29;;;;;;;9.90;2.72;;;;;;;;;;5068480;28;20044;-73
2022/11/21 14:11:29;;;;;;;4.80;2.05;;;;;;;;;;5067963;28;20529;-74
2022/11/21 14:13:59;;;;;;;6.07;2.13;;;;;;;;;;5068770;28;20059;-72
2022/11/21 14:16:36;;;;;;;7.93;1.98;;;;;;;;;;5069113;28;20471;-72
2022/11/21 14:19:18;;;;;;;6.47;2.58;;;;;;;;;;5068947;28;20523;-79
2022/11/21 14:21:49;;;;;;;8.63;2.00;;;;;;;;;;5067655;28;20059;-73
2022/11/21 14:24:19;;;;;;;6.00;2.30;;;;;;;;;;5068328;28;20534;-73
2022/11/21 14:26:51;;;;;;;8.82;2.53;;;;;;;;;;5068701;28;20056;-73
2022/11/21 14:29:36;;;;;;;3.92;2.15;;;;;;;;;;5067925;28;20040;-74
2022/11/21 14:32:14;;;;;;;4.65;1.80;;;;;;;;;;5067921;28;20044;-73
2022/11/21 14:34:44;;;;;;;5.22;2.05;;;;;;;;;;5068281;28;20049;-73
2022/11/21 14:37:14;;;;;;;4.00;2.25;;;;;;;;;;5068722;28;20055;-73
2022/11/21 14:39:46;;;;;;;4.13;2.10;;;;;;;;;;5068240;28;20075;-72
2022/11/21 14:42:35;;;;;;;3.80;1.95;;;;;;;;;;5050099;28;20059;-80
2022/11/21 14:45:19;;;;;;;9.35;2.17;;;;;;;;;;5068328;28;20055;-73
2022/11/21 14:47:52;;;;;;;8.38;2.25;;;;;;;;;;5050854;28;20518;-74
2022/11/21 14:50:25;;;;;;;8.25;2.58;;;;;;;;;;5067630;28;20044;-73
2022/11/21 14:52:58;;;;;;;7.97;2.55;;;;;;;;;;5067836;28;20047;-73
2022/11/21 14:55:32;;;;;;;6.13;2.33;;;;;;;;;;5049946;28;20053;-73
2022/11/21 14:58:05;;;;;;;5.72;2.20;;;;;;;;;;5067878;28;20055;-73
2022/11/21 15:00:35;;;;;;;7.15;2.13;;;;;;;;;;5067479;28;20047;-72
2022/11/21 15:03:25;;;;;;;6.65;2.85;;;;;;;;;;5068002;28;20067;-73
2022/11/21 15:06:03;;;;;;;6.45;2.25;;;;;;;;;;5068320;28;20045;-72
2022/11/21 15:08:38;;;;;;;7.78;2.60;;;;;;;;;;5067857;28;20043;-72
2022/11/21 15:12:06;;;;;;;10.73;2.60;;;;;;;;;;5067611;28;20045;-73
2022/11/21 15:14:52;;;;;;;6.55;2.47;;;;;;;;;;5067630;28;20063;-73
2022/11/21 15:17:23;;;;;;;5.82;2.85;;;;;;;;;;5067223;28;20399;-73
2022/11/21 15:20:12;;;;;;;6.00;2.42;;;;;;;;;;5067508;28;20071;-73
2022/11/21 15:22:42;;;;;;;13.63;3.30;;;;;;;;;;5067692;28;20051;-73
2022/11/21 15:25:28;;;;;;;9.32;3.33;;;;;;;;;;5067706;28;20048;-72
2022/11/21 15:28:03;;;;;;;8.18;2.72;;;;;;;;;;5067551;28;20037;-73
2022/11/21 15:30:36;;;;;;;6.40;2.42;;;;;;;;;;5067762;28;20044;-72
2022/11/21 15:33:16;;;;;;;5.50;2.40;;;;;;;;;;5065806;28;20052;-72
2022/11/21 15:35:49;;;;;;;5.68;2.25;;;;;;;;;;5067071;28;20052;-73
2022/11/21 15:38:28;;;;;;;5.72;2.78;;;;;;;;;;5066180;28;20419;-72
2022/11/21 15:41:09;;;;;;;5.93;2.33;;;;;;;;;;5048909;28;20052;-71
2022/11/21 15:43:48;;;;;;;7.38;2.22;;;;;;;;;;5067125;28;20525;-71
2022/11/21 15:46:27;;;;;;;5.70;2.00;;;;;;;;;;5066595;28;20052;-71
2022/11/21 15:48:59;;;;;;;4.20;2.20;;;;;;;;;;5067042;28;20052;-71
2022/11/21 15:51:49;;;;;;;6.78;3.35;;;;;;;;;;5067387;28;20059;-70
2022/11/21 15:54:35;;;;;;;5.88;2.13;;;;;;;;;;5067853;28;20052;-72
2022/11/21 15:57:05;;;;;;;5.63;2.47;;;;;;;;;;5049405;28;20053;-75
2022/11/21 15:59:34;;;;;;;10.82;1.98;;;;;;;;;;5066896;28;20044;-72
2022/11/21 16:02:05;;;;;;;5.30;2.50;;;;;;;;;;5066609;28;20415;-72
2022/11/21 16:04:35;;;;;;;6.35;2.45;;;;;;;;;;5066734;28;20384;-72
2022/11/21 16:07:05;;;;;;;6.53;2.42;;;;;;;;;;5066554;28;20067;-71
2022/11/21 16:09:36;;;;;;;9.60;2.63;;;;;;;;;;5067332;28;20049;-70
2022/11/21 16:12:08;;;;;;;8.35;2.35;;;;;;;;;;5066161;28;20404;-71
2022/11/21 16:14:38;;;;;;;7.60;2.20;;;;;;;;;;5066305;28;20040;-71
2022/11/21 16:17:08;;;;;;;10.15;2.47;;;;;;;;;;5067075;28;20049;-77
2022/11/21 16:19:38;;;;;;;4.30;2.22;;;;;;;;;;5048802;28;20055;-72